Time;durP1;ratioP1;P1;durP2;ratioP2;P2;SDS_P1;SDS_P2;PMS_P1;PMS_P2;Temp;Humidity;BMP_temperature;BMP_pressure;BME280_temperature;BME280_humidity;BME280_pressure;Samples;Min_cycle;Max_cycle;Signal;HPM_P1;HPM_P2
2022/06/30 00:00:25;;;;;;;0.40;0.40;;;;;;;-148.56;100.00;61375.16;5007777;28;20591;-40
2022/06/30 00:02:50;;;;;;;0.30;0.30;;;;;;;-148.56;100.00;61375.16;5006852;28;20461;-32
2022/06/30 00:05:16;;;;;;;0.43;0.43;;;;;;;-148.56;100.00;61375.16;5002334;28;20037;-36
2022/06/30 00:07:42;;;;;;;0.40;0.40;;;;;;;-148.56;100.00;61375.16;5010277;28;20037;-35
2022/06/30 00:10:10;;;;;;;0.30;0.30;;;;;;;-148.56;100.00;61375.16;5008567;28;20037;-36
2022/06/30 00:12:35;;;;;;;0.30;0.30;;;;;;;-148.56;100.00;61375.16;5006402;28;20143;-35
2022/06/30 00:15:01;;;;;;;0.50;0.50;;;;;;;-148.56;100.00;61375.16;5005980;28;20531;-37
2022/06/30 00:17:26;;;;;;;0.40;0.40;;;;;;;-148.56;100.00;61375.16;5011272;28;20087;-35
2022/06/30 00:19:51;;;;;;;0.30;0.30;;;;;;;-148.56;100.00;61375.16;5009786;28;20017;-33
2022/06/30 00:22:17;;;;;;;0.75;0.43;;;;;;;-148.56;100.00;61375.16;5004649;28;20681;-38
2022/06/30 00:24:42;;;;;;;0.38;0.32;;;;;;;-148.56;100.00;61375.16;5001746;28;20547;-37
2022/06/30 00:27:08;;;;;;;0.45;0.40;;;;;;;-148.56;100.00;61375.16;5007892;28;20037;-37
2022/06/30 00:29:33;;;;;;;0.35;0.35;;;;;;;-148.56;100.00;61375.16;5007201;28;20033;-34
2022/06/30 00:31:59;;;;;;;0.40;0.40;;;;;;;-148.56;100.00;61375.16;5006205;28;20025;-34
2022/06/30 00:34:24;;;;;;;0.30;0.30;;;;;;;-148.56;100.00;61375.16;5004884;28;20029;-38
2022/06/30 00:36:50;;;;;;;0.35;0.35;;;;;;;-148.56;100.00;61375.16;5004473;28;20729;-35
2022/06/30 00:39:15;;;;;;;0.40;0.38;;;;;;;-148.56;100.00;61375.16;5006937;28;20184;-36
2022/06/30 00:41:41;;;;;;;0.50;0.47;;;;;;;-148.56;100.00;61375.16;5006549;28;20132;-34
2022/06/30 00:44:07;;;;;;;0.40;0.30;;;;;;;-148.56;100.00;61375.16;5001909;28;20585;-33
2022/06/30 00:46:33;;;;;;;0.30;0.30;;;;;;;-148.56;100.00;61375.16;5004167;28;20052;-32
2022/06/30 00:48:58;;;;;;;0.40;0.40;;;;;;;-148.56;100.00;61375.16;5007199;28;20060;-36
2022/06/30 00:51:24;;;;;;;0.47;0.40;;;;;;;-148.56;100.00;61375.16;5007501;28;20029;-35
2022/06/30 00:53:49;;;;;;;0.20;0.20;;;;;;;-148.56;100.00;61375.16;5007047;28;20041;-34
2022/06/30 00:56:15;;;;;;;0.35;0.35;;;;;;;-148.56;100.00;61375.16;5008942;28;20076;-33
2022/06/30 00:58:40;;;;;;;0.40;0.40;;;;;;;-148.56;100.00;61375.16;5008547;28;20046;-37
2022/06/30 01:01:12;;;;;;;0.38;0.38;;;;;;;-148.56;100.00;61375.16;5007854;28;20647;-39
2022/06/30 01:03:38;;;;;;;0.50;0.50;;;;;;;-148.56;100.00;61375.16;5009521;28;20040;-35
2022/06/30 01:06:04;;;;;;;0.30;0.30;;;;;;;-148.56;100.00;61375.16;5003201;28;20030;-34
2022/06/30 01:08:30;;;;;;;0.40;0.40;;;;;;;-148.56;100.00;61375.16;5007544;28;20033;-38
2022/06/30 01:13:41;;;;;;;0.32;0.30;;;;;;;-148.56;100.00;61375.16;5006235;28;20052;-31
2022/06/30 01:16:06;;;;;;;0.35;0.35;;;;;;;-148.56;100.00;61375.16;5005950;28;20021;-38
2022/06/30 01:18:33;;;;;;;0.50;0.50;;;;;;;-148.56;100.00;61375.16;5004527;28;20282;-39
2022/06/30 01:20:59;;;;;;;0.20;0.20;;;;;;;-148.56;100.00;61375.16;5004419;28;20460;-35
2022/06/30 01:23:24;;;;;;;0.40;0.40;;;;;;;-148.56;100.00;61375.16;5000726;28;20052;-33
2022/06/30 01:25:51;;;;;;;0.30;0.30;;;;;;;-148.56;100.00;61375.16;5005112;28;20048;-35
2022/06/30 01:28:17;;;;;;;0.30;0.30;;;;;;;-148.56;100.00;61375.16;5005446;28;20385;-32
2022/06/30 01:30:42;;;;;;;0.30;0.30;;;;;;;-148.56;100.00;61375.16;5009162;28;20099;-33
2022/06/30 01:33:08;;;;;;;0.30;0.30;;;;;;;-148.56;100.00;61375.16;5012107;28;20631;-34
2022/06/30 01:35:33;;;;;;;0.30;0.30;;;;;;;-148.56;100.00;61375.16;5010236;28;20469;-33
2022/06/30 01:37:59;;;;;;;0.30;0.30;;;;;;;-148.56;100.00;61375.16;5012828;28;20037;-36
2022/06/30 01:40:26;;;;;;;0.40;0.40;;;;;;;-148.56;100.00;61375.16;5008630;28;20099;-35
2022/06/30 01:42:52;;;;;;;0.40;0.40;;;;;;;-148.56;100.00;61375.16;5006887;28;20211;-34
2022/06/30 01:45:17;;;;;;;0.40;0.40;;;;;;;-148.56;100.00;61375.16;5010651;28;20029;-31
2022/06/30 01:47:43;;;;;;;0.30;0.30;;;;;;;-148.56;100.00;61375.16;5011120;28;20825;-30
2022/06/30 01:50:16;;;;;;;1.95;0.50;;;;;;;-148.56;100.00;61375.16;5009869;28;20337;-33
2022/06/30 01:52:42;;;;;;;0.40;0.40;;;;;;;-148.56;100.00;61375.16;5009574;28;20029;-31
2022/06/30 01:55:08;;;;;;;0.20;0.20;;;;;;;-148.56;100.00;61375.16;5006550;28;20049;-35
2022/06/30 01:57:34;;;;;;;0.45;0.45;;;;;;;-148.56;100.00;61375.16;5008663;28;20057;-33
2022/06/30 01:59:59;;;;;;;0.30;0.30;;;;;;;-148.56;100.00;61375.16;5009824;28;20952;-39
2022/06/30 02:02:25;;;;;;;0.22;0.22;;;;;;;-148.56;100.00;61375.16;5013166;28;20034;-30
2022/06/30 02:04:53;;;;;;;0.60;0.45;;;;;;;-148.56;100.00;61375.16;5002326;28;20021;-34
2022/06/30 02:07:19;;;;;;;0.30;0.30;;;;;;;-148.56;100.00;61375.16;5009922;28;20041;-36
2022/06/30 02:09:45;;;;;;;0.43;0.43;;;;;;;-148.56;100.00;61375.16;5012211;28;20101;-31
2022/06/30 02:14:55;;;;;;;0.40;0.40;;;;;;;-148.56;100.00;61375.16;5009688;28;20107;-31
2022/06/30 02:17:21;;;;;;;0.30;0.30;;;;;;;-148.56;100.00;61375.16;5004539;28;20571;-33
2022/06/30 02:19:46;;;;;;;0.30;0.30;;;;;;;-148.56;100.00;61375.16;5009896;28;20042;-34
2022/06/30 02:22:11;;;;;;;0.82;0.35;;;;;;;-148.56;100.00;61375.16;5005384;28;20057;-30
2022/06/30 02:24:37;;;;;;;0.40;0.40;;;;;;;-148.56;100.00;61375.16;5005134;28;20029;-37
2022/06/30 02:27:03;;;;;;;0.30;0.30;;;;;;;-148.56;100.00;61375.16;5008756;28;20135;-37
2022/06/30 02:29:28;;;;;;;0.30;0.30;;;;;;;-148.56;100.00;61375.16;5009254;28;20033;-35
2022/06/30 02:31:53;;;;;;;0.40;0.40;;;;;;;-148.56;100.00;61375.16;5007914;28;20028;-38
2022/06/30 02:34:19;;;;;;;0.30;0.30;;;;;;;-148.56;100.00;61375.16;5007734;28;20428;-30
2022/06/30 02:36:44;;;;;;;0.22;0.22;;;;;;;-148.56;100.00;61375.16;5010249;28;20483;-34
2022/06/30 02:39:10;;;;;;;0.30;0.30;;;;;;;-148.56;100.00;61375.16;5009355;28;20373;-38
2022/06/30 02:41:35;;;;;;;0.40;0.30;;;;;;;-148.56;100.00;61375.16;5011258;28;20496;-34
2022/06/30 02:44:02;;;;;;;0.30;0.30;;;;;;;-148.56;100.00;61375.16;5004162;28;20037;-34
2022/06/30 02:46:27;;;;;;;0.30;0.30;;;;;;;-148.56;100.00;61375.16;5008766;28;20030;-34
2022/06/30 02:48:53;;;;;;;0.50;0.50;;;;;;;-148.56;100.00;61375.16;5009164;28;20049;-35
2022/06/30 02:51:18;;;;;;;0.40;0.40;;;;;;;-148.56;100.00;61375.16;5004704;28;20389;-33
2022/06/30 02:53:43;;;;;;;0.30;0.30;;;;;;;-148.56;100.00;61375.16;5007993;28;20040;-32
2022/06/30 02:56:09;;;;;;;0.40;0.40;;;;;;;-148.56;100.00;61375.16;5007011;28;20367;-35
2022/06/30 02:58:35;;;;;;;0.30;0.30;;;;;;;-148.56;100.00;61375.16;5009272;28;20459;-37
2022/06/30 03:01:00;;;;;;;0.40;0.40;;;;;;;-148.56;100.00;61375.16;5008731;28;20026;-37
2022/06/30 03:03:26;;;;;;;0.40;0.40;;;;;;;-148.56;100.00;61375.16;5007986;28;20032;-34
2022/06/30 03:05:51;;;;;;;0.45;0.30;;;;;;;-148.56;100.00;61375.16;5006044;28;20676;-33
2022/06/30 03:08:16;;;;;;;0.35;0.35;;;;;;;-148.56;100.00;61375.16;5009164;28;20057;-37
2022/06/30 03:10:42;;;;;;;0.50;0.40;;;;;;;-148.56;100.00;61375.16;5009160;28;20033;-32
2022/06/30 03:13:07;;;;;;;0.30;0.30;;;;;;;-148.56;100.00;61375.16;5007240;28;20080;-37
2022/06/30 03:15:32;;;;;;;0.30;0.30;;;;;;;-148.56;100.00;61375.16;5005936;28;20073;-38
2022/06/30 03:17:59;;;;;;;0.30;0.30;;;;;;;-148.56;100.00;61375.16;5012278;28;20381;-30
2022/06/30 03:20:24;;;;;;;0.30;0.30;;;;;;;-148.56;100.00;61375.16;5008288;28;20061;-38
2022/06/30 03:22:50;;;;;;;0.20;0.20;;;;;;;-148.56;100.00;61375.16;5008012;28;20867;-35
2022/06/30 03:25:15;;;;;;;0.30;0.30;;;;;;;-148.56;100.00;61375.16;5004532;28;20040;-34
2022/06/30 03:27:41;;;;;;;0.35;0.35;;;;;;;-148.56;100.00;61375.16;5006821;28;20040;-38
2022/06/30 03:30:07;;;;;;;0.40;0.40;;;;;;;-148.56;100.00;61375.16;5005555;28;20632;-36
2022/06/30 03:32:32;;;;;;;0.30;0.30;;;;;;;-148.56;100.00;61375.16;5007958;28;20064;-37
2022/06/30 03:34:57;;;;;;;0.30;0.30;;;;;;;-148.56;100.00;61375.16;5010139;28;20029;-33
2022/06/30 03:37:23;;;;;;;0.30;0.30;;;;;;;-148.56;100.00;61375.16;5007385;28;20491;-35
2022/06/30 03:39:48;;;;;;;0.30;0.30;;;;;;;-148.56;100.00;61375.16;5004708;28;20040;-33
2022/06/30 03:42:14;;;;;;;0.32;0.32;;;;;;;-148.56;100.00;61375.16;5008847;28;20034;-35
2022/06/30 03:44:39;;;;;;;0.50;0.38;;;;;;;-148.56;100.00;61375.16;5008360;28;20029;-32
2022/06/30 03:47:04;;;;;;;0.45;0.40;;;;;;;-148.56;100.00;61375.16;5006430;28;20021;-39
2022/06/30 03:49:30;;;;;;;0.40;0.40;;;;;;;-148.56;100.00;61375.16;5006241;28;20044;-34
2022/06/30 03:51:55;;;;;;;0.80;0.30;;;;;;;-148.56;100.00;61375.16;5004361;28;20048;-38
2022/06/30 03:54:21;;;;;;;0.35;0.28;;;;;;;-148.56;100.00;61375.16;5009787;28;20043;-39
2022/06/30 03:56:46;;;;;;;0.40;0.40;;;;;;;-148.56;100.00;61375.16;5008662;28;20025;-35
2022/06/30 03:59:12;;;;;;;0.50;0.40;;;;;;;-148.56;100.00;61375.16;5008323;28;20041;-35
2022/06/30 04:01:38;;;;;;;0.38;0.38;;;;;;;-148.56;100.00;61375.16;5006409;28;20037;-38
2022/06/30 04:04:03;;;;;;;0.22;0.22;;;;;;;-148.56;100.00;61375.16;5004604;28;20856;-35
2022/06/30 04:06:29;;;;;;;0.73;0.40;;;;;;;-148.56;100.00;61375.16;5007716;28;20064;-32
2022/06/30 04:08:54;;;;;;;0.35;0.35;;;;;;;-148.56;100.00;61375.16;5007346;28;20582;-34
2022/06/30 04:11:19;;;;;;;0.30;0.30;;;;;;;-148.56;100.00;61375.16;5005692;28;20766;-34
2022/06/30 04:13:45;;;;;;;0.40;0.40;;;;;;;-148.56;100.00;61375.16;5003156;28;20045;-34
2022/06/30 04:16:10;;;;;;;0.55;0.40;;;;;;;-148.56;100.00;61375.16;5005287;28;20026;-32
2022/06/30 04:18:36;;;;;;;0.35;0.30;;;;;;;-148.56;100.00;61375.16;5008980;28;20092;-37
2022/06/30 04:21:01;;;;;;;0.35;0.35;;;;;;;-148.56;100.00;61375.16;5005248;28;20714;-35
2022/06/30 04:23:26;;;;;;;0.40;0.30;;;;;;;-148.56;100.00;61375.16;5003158;28;20061;-33
2022/06/30 04:25:52;;;;;;;1.17;0.30;;;;;;;-148.56;100.00;61375.16;5005503;28;20393;-37
2022/06/30 04:28:17;;;;;;;0.30;0.30;;;;;;;-148.56;100.00;61375.16;5009096;28;20030;-32
2022/06/30 04:33:26;;;;;;;0.30;0.30;;;;;;;-148.56;100.00;61375.16;5007178;28;20048;-33
2022/06/30 04:35:52;;;;;;;0.30;0.30;;;;;;;-148.56;100.00;61375.16;5006721;28;20025;-34
2022/06/30 04:38:17;;;;;;;0.30;0.30;;;;;;;-148.56;100.00;61375.16;5008266;28;20496;-33
2022/06/30 04:43:26;;;;;;;0.40;0.40;;;;;;;-148.56;100.00;61375.16;5003972;28;20629;-34
2022/06/30 04:45:52;;;;;;;0.40;0.38;;;;;;;-148.56;100.00;61375.16;5005592;28;20037;-33
2022/06/30 04:48:17;;;;;;;0.40;0.40;;;;;;;-148.56;100.00;61375.16;5009167;28;20091;-32
2022/06/30 04:50:43;;;;;;;0.38;0.38;;;;;;;-148.56;100.00;61375.16;5000577;28;20075;-33
2022/06/30 04:53:08;;;;;;;0.38;0.38;;;;;;;-148.56;100.00;61375.16;5003125;28;20399;-30
2022/06/30 04:55:33;;;;;;;0.30;0.30;;;;;;;-148.56;100.00;61375.16;5008226;28;20812;-33
2022/06/30 04:57:59;;;;;;;0.35;0.35;;;;;;;-148.56;100.00;61375.16;5009097;28;20040;-33
2022/06/30 05:00:24;;;;;;;0.30;0.30;;;;;;;-148.56;100.00;61375.16;5006383;28;20044;-31
2022/06/30 05:02:50;;;;;;;0.35;0.35;;;;;;;-148.56;100.00;61375.16;5005938;28;20454;-35
2022/06/30 05:05:15;;;;;;;0.30;0.30;;;;;;;-148.56;100.00;61375.16;4996168;28;20044;-38
2022/06/30 05:07:40;;;;;;;0.40;0.40;;;;;;;-148.56;100.00;61375.16;5005161;28;20025;-32
2022/06/30 05:10:06;;;;;;;0.30;0.22;;;;;;;-148.56;100.00;61375.16;5008764;28;20034;-30
2022/06/30 05:12:32;;;;;;;0.35;0.35;;;;;;;-148.56;100.00;61375.16;5006101;28;20030;-33
2022/06/30 05:14:58;;;;;;;0.45;0.45;;;;;;;-148.56;100.00;61375.16;5008789;28;20024;-34
2022/06/30 05:17:24;;;;;;;0.38;0.38;;;;;;;-148.56;100.00;61375.16;5005765;28;20029;-30
2022/06/30 05:19:49;;;;;;;0.20;0.20;;;;;;;-148.56;100.00;61375.16;5005953;28;20041;-34
2022/06/30 05:22:15;;;;;;;0.40;0.40;;;;;;;-148.56;100.00;61375.16;5004473;28;20088;-33
2022/06/30 05:27:24;;;;;;;0.40;0.40;;;;;;;-148.56;100.00;61375.16;4985198;28;20041;-35
2022/06/30 05:29:49;;;;;;;0.50;0.38;;;;;;;-148.56;100.00;61375.16;4988019;28;20056;-33
2022/06/30 05:32:15;;;;;;;0.30;0.30;;;;;;;-148.56;100.00;61375.16;4987226;28;20624;-34
2022/06/30 05:34:40;;;;;;;0.30;0.30;;;;;;;-148.56;100.00;61375.16;4987252;28;20034;-39
2022/06/30 05:37:05;;;;;;;0.30;0.30;;;;;;;-148.56;100.00;61375.16;4989927;28;20868;-37
2022/06/30 05:39:34;;;;;;;0.30;0.30;;;;;;;-148.56;100.00;61375.16;4990700;28;20112;-36
2022/06/30 05:42:00;;;;;;;0.30;0.25;;;;;;;-148.56;100.00;61375.16;4985210;28;20038;-34
2022/06/30 05:44:27;;;;;;;0.30;0.30;;;;;;;-148.56;100.00;61375.16;4982402;28;20041;-34
2022/06/30 05:46:53;;;;;;;0.32;0.32;;;;;;;-148.56;100.00;61375.16;4987811;28;21417;-31
2022/06/30 05:49:19;;;;;;;0.32;0.32;;;;;;;-148.56;100.00;61375.16;4989868;28;20026;-37
2022/06/30 05:51:44;;;;;;;1.20;0.40;;;;;;;-148.56;100.00;61375.16;4985422;28;20026;-37
2022/06/30 05:54:09;;;;;;;0.40;0.40;;;;;;;-148.56;100.00;61375.16;4985370;28;20516;-32
2022/06/30 05:56:35;;;;;;;0.55;0.50;;;;;;;-148.56;100.00;61375.16;4986633;28;20045;-35
2022/06/30 05:59:00;;;;;;;0.30;0.30;;;;;;;-148.56;100.00;61375.16;4989425;28;20120;-37
2022/06/30 06:01:26;;;;;;;0.90;0.47;;;;;;;-148.56;100.00;61375.16;4987736;28;20115;-32
2022/06/30 06:03:51;;;;;;;0.47;0.30;;;;;;;-148.56;100.00;61375.16;4987941;28;20037;-31
2022/06/30 06:06:17;;;;;;;0.30;0.30;;;;;;;-148.56;100.00;61375.16;4985091;28;20076;-36
2022/06/30 06:08:42;;;;;;;0.30;0.30;;;;;;;-148.56;100.00;61375.16;4986616;28;20044;-38
2022/06/30 06:11:08;;;;;;;0.38;0.30;;;;;;;-148.56;100.00;61375.16;4988826;28;20734;-40
2022/06/30 06:13:33;;;;;;;0.40;0.40;;;;;;;-148.56;100.00;61375.16;4987502;28;20570;-35
2022/06/30 06:15:58;;;;;;;0.50;0.40;;;;;;;-148.56;100.00;61375.16;4990231;28;20660;-35
2022/06/30 06:18:24;;;;;;;0.35;0.30;;;;;;;-148.56;100.00;61375.16;4990306;28;20088;-38
2022/06/30 06:20:49;;;;;;;0.30;0.30;;;;;;;-148.56;100.00;61375.16;4992626;28;20025;-38
2022/06/30 06:23:15;;;;;;;0.40;0.38;;;;;;;-148.56;100.00;61375.16;4985881;28;21303;-36
2022/06/30 06:25:40;;;;;;;0.47;0.40;;;;;;;-148.56;100.00;61375.16;4987978;28;20029;-36
2022/06/30 06:30:49;;;;;;;0.40;0.40;;;;;;;-148.56;100.00;61375.16;4988193;28;21043;-38
2022/06/30 06:33:15;;;;;;;0.30;0.30;;;;;;;-148.56;100.00;61375.16;4990570;28;20744;-34
2022/06/30 06:35:40;;;;;;;1.70;0.32;;;;;;;-148.56;100.00;61375.16;4990551;28;20025;-33
2022/06/30 06:38:06;;;;;;;1.75;0.50;;;;;;;-148.56;100.00;61375.16;4988865;28;20049;-34
2022/06/30 06:40:31;;;;;;;0.40;0.40;;;;;;;-148.56;100.00;61375.16;4987613;28;20103;-34
2022/06/30 06:42:57;;;;;;;0.30;0.30;;;;;;;-148.56;100.00;61375.16;4987944;28;20037;-33
2022/06/30 06:45:22;;;;;;;0.43;0.30;;;;;;;-148.56;100.00;61375.16;4989312;28;20030;-41
2022/06/30 06:47:47;;;;;;;0.38;0.38;;;;;;;-148.56;100.00;61375.16;4992054;28;20028;-34
2022/06/30 06:50:13;;;;;;;0.20;0.20;;;;;;;-148.56;100.00;61375.16;4986747;28;20064;-36
2022/06/30 06:52:38;;;;;;;0.38;0.38;;;;;;;-148.56;100.00;61375.16;4989526;28;20588;-37
2022/06/30 06:55:04;;;;;;;0.57;0.40;;;;;;;-148.56;100.00;61375.16;4989559;28;20985;-35
2022/06/30 06:57:36;;;;;;;0.30;0.30;;;;;;;-148.56;100.00;61375.16;4992610;28;20025;-38
2022/06/30 07:00:09;;;;;;;0.65;0.40;;;;;;;-148.56;100.00;61375.16;4990807;28;20037;-38
2022/06/30 07:02:35;;;;;;;0.40;0.40;;;;;;;-148.56;100.00;61375.16;4990924;28;20033;-36
2022/06/30 07:05:00;;;;;;;0.57;0.38;;;;;;;-148.56;100.00;61375.16;4990738;28;20041;-33
2022/06/30 07:07:26;;;;;;;0.30;0.30;;;;;;;-148.56;100.00;61375.16;4989127;28;20092;-37
2022/06/30 07:09:51;;;;;;;0.57;0.52;;;;;;;-148.56;100.00;61375.16;4991636;28;20116;-34
2022/06/30 07:12:16;;;;;;;0.40;0.40;;;;;;;-148.56;100.00;61375.16;4991675;28;20030;-36
2022/06/30 07:14:42;;;;;;;1.48;0.50;;;;;;;-148.56;100.00;61375.16;4990102;28;20566;-38
2022/06/30 07:17:07;;;;;;;0.60;0.50;;;;;;;-148.56;100.00;61375.16;4990103;28;20029;-38
2022/06/30 07:19:33;;;;;;;3.67;1.33;;;;;;;-148.56;100.00;61375.16;4990277;28;20026;-32
2022/06/30 07:21:58;;;;;;;6.78;1.40;;;;;;;-148.56;100.00;61375.16;4990067;28;20025;-33
2022/06/30 07:24:23;;;;;;;2.67;1.45;;;;;;;-148.56;100.00;61375.16;4986327;28;21700;-37
2022/06/30 07:26:49;;;;;;;4.30;1.45;;;;;;;-148.56;100.00;61375.16;4985988;28;20026;-34
2022/06/30 07:29:14;;;;;;;2.75;0.90;;;;;;;-148.56;100.00;61375.16;4987552;28;20033;-37
2022/06/30 07:31:40;;;;;;;1.08;0.75;;;;;;;-148.56;100.00;61375.16;4991452;28;20110;-34
2022/06/30 07:34:05;;;;;;;0.98;0.70;;;;;;;-148.56;100.00;61375.16;4989834;28;20033;-32
2022/06/30 07:36:30;;;;;;;3.85;1.13;;;;;;;-148.56;100.00;61375.16;4986553;28;20559;-37
2022/06/30 07:38:56;;;;;;;1.75;0.80;;;;;;;-148.56;100.00;61375.16;4988595;28;20480;-35
2022/06/30 07:41:22;;;;;;;2.38;1.08;;;;;;;-148.56;100.00;61375.16;4990824;28;20136;-36
2022/06/30 07:43:48;;;;;;;3.58;1.13;;;;;;;-148.56;100.00;61375.16;4984396;28;20078;-36
2022/06/30 07:46:16;;;;;;;2.10;0.95;;;;;;;-148.56;100.00;61375.16;4986987;28;20935;-33
2022/06/30 07:48:42;;;;;;;1.60;0.90;;;;;;;-148.56;100.00;61375.16;4998687;28;20033;-32
2022/06/30 07:51:08;;;;;;;1.25;0.85;;;;;;;-148.56;100.00;61375.16;5003646;28;20033;-30
2022/06/30 07:53:33;;;;;;;2.33;0.82;;;;;;;-148.56;100.00;61375.16;5007274;28;20057;-36
2022/06/30 07:55:58;;;;;;;1.95;0.80;;;;;;;-148.56;100.00;61375.16;5010032;28;20029;-37
2022/06/30 07:58:24;;;;;;;0.95;0.90;;;;;;;-148.56;100.00;61375.16;5008271;28;20510;-32
2022/06/30 08:00:49;;;;;;;0.70;0.60;;;;;;;-148.56;100.00;61375.16;5008176;28;20744;-36
2022/06/30 08:03:15;;;;;;;1.02;0.93;;;;;;;-148.56;100.00;61375.16;5008134;28;20045;-31
2022/06/30 08:05:40;;;;;;;2.00;0.90;;;;;;;-148.56;100.00;61375.16;5008182;28;20032;-35
2022/06/30 08:08:05;;;;;;;1.10;0.70;;;;;;;-148.56;100.00;61375.16;5007124;28;20037;-35
2022/06/30 08:10:31;;;;;;;2.38;1.00;;;;;;;-148.56;100.00;61375.16;5011558;28;20810;-35
2022/06/30 08:12:56;;;;;;;0.65;0.63;;;;;;;-148.56;100.00;61375.16;5010213;28;20704;-38
2022/06/30 08:15:22;;;;;;;0.80;0.80;;;;;;;-148.56;100.00;61375.16;5002623;28;20466;-31
2022/06/30 08:17:47;;;;;;;0.88;0.82;;;;;;;-148.56;100.00;61375.16;5021674;28;20026;-35
2022/06/30 08:20:12;;;;;;;1.90;0.65;;;;;;;-148.56;100.00;61375.16;5008888;28;20504;-31
2022/06/30 08:22:38;;;;;;;1.88;0.70;;;;;;;-148.56;100.00;61375.16;5005998;28;20030;-35
2022/06/30 08:25:04;;;;;;;2.08;0.85;;;;;;;-148.56;100.00;61375.16;5005147;28;20045;-38
2022/06/30 08:27:29;;;;;;;1.45;0.70;;;;;;;-148.56;100.00;61375.16;5003607;28;20078;-39
2022/06/30 08:29:54;;;;;;;1.05;0.90;;;;;;;-148.56;100.00;61375.16;5007891;28;20029;-33
2022/06/30 08:32:20;;;;;;;1.92;1.05;;;;;;;-148.56;100.00;61375.16;5006657;28;20049;-32
2022/06/30 08:34:45;;;;;;;1.17;0.77;;;;;;;-148.56;100.00;61375.16;5005452;28;20026;-37
2022/06/30 08:37:11;;;;;;;1.23;0.77;;;;;;;-148.56;100.00;61375.16;5009279;28;20033;-33
2022/06/30 08:42:21;;;;;;;0.80;0.75;;;;;;;-148.56;100.00;61375.16;5004182;28;20044;-35
2022/06/30 08:45:13;;;;;;;1.52;1.08;;;;;;;-148.56;100.00;61375.16;5005139;28;20036;-32
2022/06/30 08:47:36;;;;;;;1.85;0.90;;;;;;;-148.56;100.00;61375.16;4974194;28;20500;-29
2022/06/30 08:50:02;;;;;;;0.70;0.70;;;;;;;-148.56;100.00;61375.16;4967677;28;20033;-34
2022/06/30 08:52:29;;;;;;;1.02;0.85;;;;;;;-148.56;100.00;61375.16;4967148;28;20095;-36
2022/06/30 08:54:54;;;;;;;1.10;0.90;;;;;;;-148.56;100.00;61375.16;4965298;28;20037;-36
2022/06/30 08:57:20;;;;;;;2.10;1.00;;;;;;;-148.56;100.00;61375.16;4971990;28;20099;-34
2022/06/30 08:59:45;;;;;;;1.38;0.90;;;;;;;-148.56;100.00;61375.16;4944950;28;21202;-38
2022/06/30 09:02:10;;;;;;;1.67;0.88;;;;;;;-148.56;100.00;61375.16;4958121;28;20029;-34
2022/06/30 09:04:36;;;;;;;1.17;0.70;;;;;;;-148.56;100.00;61375.16;4968799;28;20025;-37
2022/06/30 09:07:01;;;;;;;2.00;0.80;;;;;;;-148.56;100.00;61375.16;4966650;28;22086;-38
2022/06/30 09:09:26;;;;;;;1.58;1.00;;;;;;;-148.56;100.00;61375.16;4961906;28;20076;-36
2022/06/30 09:11:53;;;;;;;1.10;0.80;;;;;;;-148.56;100.00;61375.16;4974300;28;20916;-30
2022/06/30 09:14:38;;;;;;;1.60;0.70;;;;;;;-148.56;100.00;61375.16;4962129;28;20034;-36
2022/06/30 09:17:08;;;;;;;0.70;0.70;;;;;;;-148.56;100.00;61375.16;4961231;28;20503;-38
2022/06/30 09:19:37;;;;;;;1.25;0.88;;;;;;;-148.56;100.00;61375.16;4961348;28;20067;-33
2022/06/30 09:22:08;;;;;;;1.15;0.80;;;;;;;-148.56;100.00;61375.16;4964236;28;20116;-37
2022/06/30 09:24:34;;;;;;;0.60;0.60;;;;;;;-148.56;100.00;61375.16;4961702;28;20081;-38
2022/06/30 09:27:08;;;;;;;0.90;0.80;;;;;;;-148.56;100.00;61375.16;4962459;28;20786;-36
2022/06/30 09:29:33;;;;;;;1.02;0.82;;;;;;;-148.56;100.00;61375.16;4966385;28;20041;-33
2022/06/30 09:31:59;;;;;;;1.60;0.90;;;;;;;-148.56;100.00;61375.16;4961803;28;20076;-32
2022/06/30 09:34:25;;;;;;;0.68;0.68;;;;;;;-148.56;100.00;61375.16;4962256;28;20160;-36
2022/06/30 09:36:51;;;;;;;2.25;0.98;;;;;;;-148.56;100.00;61375.16;4970194;28;21054;-35
2022/06/30 09:39:17;;;;;;;0.80;0.80;;;;;;;-148.56;100.00;61375.16;4964428;28;20566;-36
2022/06/30 09:41:43;;;;;;;0.70;0.70;;;;;;;-148.56;100.00;61375.16;4962397;28;20304;-35
2022/06/30 09:44:38;;;;;;;0.77;0.77;;;;;;;-148.56;100.00;61375.16;4972582;28;20889;-39
2022/06/30 09:47:06;;;;;;;0.80;0.63;;;;;;;-148.56;100.00;61375.16;4961446;28;20076;-31
2022/06/30 09:49:36;;;;;;;1.20;0.77;;;;;;;-148.56;100.00;61375.16;5009570;28;20563;-35
2022/06/30 09:52:03;;;;;;;0.73;0.70;;;;;;;-148.56;100.00;61375.16;5010500;28;20039;-36
2022/06/30 09:54:32;;;;;;;1.25;0.90;;;;;;;-148.56;100.00;61375.16;5008427;28;20038;-33
2022/06/30 09:57:05;;;;;;;0.82;0.80;;;;;;;-148.56;100.00;61375.16;5011111;28;20068;-32
2022/06/30 09:59:30;;;;;;;0.82;0.70;;;;;;;-148.56;100.00;61375.16;5012242;28;20665;-31
2022/06/30 10:01:56;;;;;;;1.15;0.70;;;;;;;-148.56;100.00;61375.16;5007749;28;20047;-33
2022/06/30 10:04:21;;;;;;;0.70;0.60;;;;;;;-148.56;100.00;61375.16;5002467;28;20036;-35
2022/06/30 10:06:47;;;;;;;0.50;0.50;;;;;;;-148.56;100.00;61375.16;5006710;28;20022;-35
2022/06/30 10:09:18;;;;;;;0.68;0.68;;;;;;;-148.56;100.00;61375.16;5007208;28;20054;-35
2022/06/30 10:11:45;;;;;;;0.68;0.68;;;;;;;-148.56;100.00;61375.16;5010329;28;20369;-34
2022/06/30 10:14:11;;;;;;;1.00;0.77;;;;;;;-148.56;100.00;61375.16;5003185;28;20543;-35
2022/06/30 10:16:39;;;;;;;0.90;0.80;;;;;;;-148.56;100.00;61375.16;5005442;28;20116;-36
2022/06/30 10:19:04;;;;;;;0.93;0.80;;;;;;;-148.56;100.00;61375.16;5010191;28;20021;-37
2022/06/30 10:21:30;;;;;;;1.92;0.70;;;;;;;-148.56;100.00;61375.16;5008836;28;20025;-37
2022/06/30 10:23:55;;;;;;;2.17;0.80;;;;;;;-148.56;100.00;61375.16;5009603;28;20670;-32
2022/06/30 10:29:04;;;;;;;0.60;0.60;;;;;;;-148.56;100.00;61375.16;4994089;28;20800;-36
2022/06/30 10:31:34;;;;;;;0.85;0.80;;;;;;;-148.56;100.00;61375.16;5008373;28;20029;-33
2022/06/30 10:34:21;;;;;;;0.68;0.68;;;;;;;-148.56;100.00;61375.16;4997300;28;20112;-37
2022/06/30 10:37:07;;;;;;;1.35;0.90;;;;;;;-148.56;100.00;61375.16;5010905;28;20040;-38
2022/06/30 10:39:52;;;;;;;1.13;0.80;;;;;;;-148.56;100.00;61375.16;5004299;28;20036;-32
2022/06/30 10:42:43;;;;;;;0.73;0.60;;;;;;;-148.56;100.00;61375.16;5002167;28;20146;-38
2022/06/30 10:45:30;;;;;;;1.20;0.82;;;;;;;-148.56;100.00;61375.16;5008718;28;20033;-33
2022/06/30 10:48:08;;;;;;;1.45;0.70;;;;;;;-148.56;100.00;61375.16;5009647;28;20037;-34
2022/06/30 10:50:41;;;;;;;0.82;0.82;;;;;;;-148.56;100.00;61375.16;5009987;28;20607;-37
2022/06/30 10:53:08;;;;;;;1.15;0.70;;;;;;;-148.56;100.00;61375.16;5005625;28;20026;-36
2022/06/30 10:55:55;;;;;;;0.95;0.80;;;;;;;-148.56;100.00;61375.16;5004750;28;20018;-36
2022/06/30 10:58:21;;;;;;;0.70;0.70;;;;;;;-148.56;100.00;61375.16;5005861;28;20106;-36
2022/06/30 11:00:55;;;;;;;0.98;0.80;;;;;;;-148.56;100.00;61375.16;5011919;28;20040;-34
2022/06/30 11:03:30;;;;;;;1.17;0.60;;;;;;;-148.56;100.00;61375.16;5011278;28;20072;-36
2022/06/30 11:06:01;;;;;;;0.70;0.70;;;;;;;-148.56;100.00;61375.16;5009714;28;20071;-34
2022/06/30 11:08:48;;;;;;;0.75;0.75;;;;;;;-148.56;100.00;61375.16;5007146;28;20115;-36
2022/06/30 11:11:22;;;;;;;1.20;0.80;;;;;;;-148.56;100.00;61375.16;5006268;28;20479;-36
2022/06/30 11:14:03;;;;;;;0.80;0.70;;;;;;;-148.56;100.00;61375.16;5006666;28;20108;-32
2022/06/30 11:16:33;;;;;;;0.80;0.80;;;;;;;-148.56;100.00;61375.16;5009920;28;20061;-37
2022/06/30 11:18:58;;;;;;;1.15;0.70;;;;;;;-148.56;100.00;61375.16;5006649;28;20527;-36
2022/06/30 11:21:24;;;;;;;0.90;0.60;;;;;;;-148.56;100.00;61375.16;5008892;28;20041;-35
2022/06/30 11:23:50;;;;;;;0.95;0.85;;;;;;;-148.56;100.00;61375.16;5009911;28;20036;-33
2022/06/30 11:29:02;;;;;;;0.80;0.80;;;;;;;-148.56;100.00;61375.16;5005439;28;20547;-38
2022/06/30 11:31:32;;;;;;;0.70;0.70;;;;;;;-148.56;100.00;61375.16;5006898;28;20025;-32